Time;durP1;ratioP1;P1;durP2;ratioP2;P2;SDS_P1;SDS_P2;PMS_P1;PMS_P2;Temp;Humidity;BMP_temperature;BMP_pressure;BME280_temperature;BME280_humidity;BME280_pressure;Samples;Min_cycle;Max_cycle;Signal;HPM_P1;HPM_P2
2023/03/20 00:02:23;;;;;;;23.73;15.52;;;;;;;8.70;86.31;101851.19;5067977;28;20048;-77
2023/03/20 00:04:50;;;;;;;22.13;15.73;;;;;;;8.66;86.19;101849.47;5061441;28;20057;-77
2023/03/20 00:07:17;;;;;;;21.25;14.45;;;;;;;8.66;86.28;101853.84;5067671;28;20458;-77
2023/03/20 00:09:44;;;;;;;23.27;15.48;;;;;;;8.64;86.29;101851.22;5067749;28;20041;-76
2023/03/20 00:12:24;;;;;;;21.63;14.40;;;;;;;8.64;86.33;101845.13;5056705;28;20041;-77
2023/03/20 00:14:52;;;;;;;20.65;14.95;;;;;;;8.62;86.42;101839.84;5066486;28;20049;-77
2023/03/20 00:17:20;;;;;;;20.10;14.18;;;;;;;8.63;86.38;101836.34;5067723;28;20849;-76
2023/03/20 00:19:47;;;;;;;19.25;14.02;;;;;;;8.63;86.48;101835.47;5066734;28;20045;-75
2023/03/20 00:22:14;;;;;;;17.40;13.18;;;;;;;8.64;86.35;101838.09;5066843;28;20893;-74
2023/03/20 00:24:41;;;;;;;18.65;13.18;;;;;;;8.66;86.29;101835.44;5066847;28;20045;-74
2023/03/20 00:27:15;;;;;;;18.05;13.05;;;;;;;8.64;86.32;101831.97;5067693;28;20052;-74
2023/03/20 00:29:43;;;;;;;20.27;13.60;;;;;;;8.65;86.35;101836.31;5066667;28;20041;-76
2023/03/20 00:32:12;;;;;;;19.08;13.20;;;;;;;8.65;86.37;101839.84;5063040;28;20041;-77
2023/03/20 00:34:40;;;;;;;18.13;12.65;;;;;;;8.61;86.14;101838.09;5070594;28;20570;-77
2023/03/20 00:37:10;;;;;;;18.10;12.60;;;;;;;8.59;86.34;101837.25;5068770;28;20562;-77
2023/03/20 00:39:38;;;;;;;17.23;12.50;;;;;;;8.57;86.52;101836.41;5069435;28;20060;-77
2023/03/20 00:42:16;;;;;;;17.95;12.27;;;;;;;8.59;86.57;101836.38;5070050;28;20037;-77
2023/03/20 00:44:52;;;;;;;16.55;11.48;;;;;;;8.58;86.41;101832.88;5067391;28;20541;-77
2023/03/20 00:47:24;;;;;;;16.58;12.05;;;;;;;8.56;86.41;101829.38;5067680;28;20033;-77
2023/03/20 00:49:53;;;;;;;16.30;10.88;;;;;;;8.56;86.55;101829.38;5065612;28;20041;-78
2023/03/20 00:52:21;;;;;;;14.73;10.70;;;;;;;8.55;86.27;101828.50;5062477;28;20118;-77
2023/03/20 00:54:50;;;;;;;14.43;9.98;;;;;;;8.54;86.44;101826.78;5066062;28;20112;-76
2023/03/20 00:57:33;;;;;;;12.80;9.13;;;;;;;8.54;86.21;101825.88;5067112;28;20049;-75
2023/03/20 01:00:30;;;;;;;15.02;9.82;;;;;;;8.53;86.65;101817.16;5065201;28;20045;-74
2023/03/20 01:02:58;;;;;;;13.02;9.60;;;;;;;8.54;86.23;101818.91;5065483;28;20656;-75
2023/03/20 01:05:26;;;;;;;14.95;9.43;;;;;;;8.54;86.17;101815.38;5066505;28;20056;-77
2023/03/20 01:07:54;;;;;;;12.57;8.95;;;;;;;8.53;86.12;101817.16;5066838;28;20561;-77
2023/03/20 01:10:31;;;;;;;16.40;9.38;;;;;;;8.52;86.22;101810.13;5063788;28;20041;-77
2023/03/20 01:13:00;;;;;;;14.05;9.45;;;;;;;8.52;86.54;101812.75;5066061;28;20044;-77
2023/03/20 01:15:32;;;;;;;15.43;9.93;;;;;;;8.52;86.14;101804.88;5065916;28;20804;-77
2023/03/20 01:18:00;;;;;;;15.90;10.45;;;;;;;8.53;86.31;101804.00;5065704;28;20044;-77
2023/03/20 01:20:29;;;;;;;16.17;9.93;;;;;;;8.53;86.37;101813.63;5065199;28;20045;-77
2023/03/20 01:22:56;;;;;;;13.98;9.25;;;;;;;8.51;86.30;101808.38;5065673;28;20180;-76
2023/03/20 01:25:24;;;;;;;15.07;9.32;;;;;;;8.51;86.37;101837.31;5067827;28;20045;-77
2023/03/20 01:27:53;;;;;;;14.02;8.68;;;;;;;8.48;86.33;101846.97;5063265;28;20048;-77
2023/03/20 01:30:30;;;;;;;16.73;9.25;;;;;;;8.49;86.64;101849.56;5064349;28;20049;-77
2023/03/20 01:33:00;;;;;;;14.13;9.30;;;;;;;8.49;86.75;101854.81;5065130;28;20174;-77
2023/03/20 01:35:28;;;;;;;15.20;8.95;;;;;;;8.48;86.77;101852.22;5064612;28;20452;-75
2023/03/20 01:38:00;;;;;;;14.25;8.98;;;;;;;8.46;86.58;101853.94;5082452;28;20085;-78
2023/03/20 01:40:49;;;;;;;14.65;8.48;;;;;;;8.45;86.88;101850.41;5069048;28;20108;-78
2023/03/20 01:43:21;;;;;;;13.93;8.68;;;;;;;8.40;86.78;101846.97;5061355;28;20050;-78
2023/03/20 01:46:17;;;;;;;13.80;8.27;;;;;;;8.40;86.88;101839.94;5063516;28;20041;-78
2023/03/20 01:48:49;;;;;;;15.90;8.15;;;;;;;8.39;86.84;101848.69;5081464;28;21831;-78
2023/03/20 01:51:21;;;;;;;13.90;8.15;;;;;;;8.39;86.64;101867.09;5065225;28;20140;-78
2023/03/20 01:54:05;;;;;;;15.05;8.35;;;;;;;8.41;86.71;101856.59;5066413;28;20043;-78
2023/03/20 01:56:45;;;;;;;22.85;8.38;;;;;;;8.40;86.74;101853.06;5064419;28;20048;-76
2023/03/20 01:59:22;;;;;;;14.60;7.78;;;;;;;8.40;86.66;101850.44;5064552;28;20041;-75
2023/03/20 02:01:50;;;;;;;11.55;7.38;;;;;;;8.40;86.63;101852.22;5080052;28;20037;-75
2023/03/20 02:04:29;;;;;;;16.67;7.72;;;;;;;8.39;86.46;101855.72;5060038;28;20120;-75
2023/03/20 02:07:07;;;;;;;13.75;8.05;;;;;;;8.39;86.42;101864.47;5061422;28;20803;-75
2023/03/20 02:09:41;;;;;;;14.15;7.65;;;;;;;8.38;86.60;101861.84;5064541;28;20045;-75
2023/03/20 02:12:15;;;;;;;14.52;7.47;;;;;;;8.37;86.60;101846.97;5065650;28;20076;-76
2023/03/20 02:14:45;;;;;;;12.05;7.65;;;;;;;8.37;86.53;101841.72;5064846;28;20045;-75
2023/03/20 02:17:21;;;;;;;16.77;7.90;;;;;;;8.36;86.35;101846.09;5058105;28;20108;-76
2023/03/20 02:20:19;;;;;;;13.50;7.28;;;;;;;8.34;86.23;101839.97;5064708;28;20761;-75
2023/03/20 02:23:26;;;;;;;12.65;6.85;;;;;;;8.29;86.15;101831.22;5077104;28;20052;-77
2023/03/20 02:26:32;;;;;;;14.65;7.32;;;;;;;8.22;85.98;101830.41;5073701;28;20060;-78
2023/03/20 02:29:30;;;;;;;15.55;7.07;;;;;;;8.17;85.67;101831.31;5062310;28;20881;-78
2023/03/20 02:32:35;;;;;;;11.98;6.75;;;;;;;8.06;85.55;101832.22;5092907;28;20053;-77
2023/03/20 02:35:31;;;;;;;16.08;7.57;;;;;;;8.01;85.61;101833.13;5063208;28;20568;-77
2023/03/20 02:38:10;;;;;;;13.63;7.93;;;;;;;7.92;85.85;101834.91;5063732;28;20572;-77
2023/03/20 02:41:15;;;;;;;13.23;6.68;;;;;;;7.88;85.77;101834.94;5063155;28;20118;-78
2023/03/20 02:44:06;;;;;;;14.95;7.97;;;;;;;7.80;85.75;101836.69;5058126;28;20540;-77
2023/03/20 02:46:56;;;;;;;14.55;7.47;;;;;;;7.74;85.95;101845.44;5064622;28;20053;-76
2023/03/20 02:50:11;;;;;;;16.30;7.60;;;;;;;7.68;86.17;101851.56;5063916;28;20437;-77
2023/03/20 02:53:36;;;;;;;15.25;7.95;;;;;;;7.61;86.28;101845.50;5062783;28;20068;-77
2023/03/20 02:56:31;;;;;;;13.00;8.18;;;;;;;7.57;86.41;101854.22;4996781;28;20147;-76
2023/03/20 02:59:40;;;;;;;17.13;8.35;;;;;;;7.53;86.62;101844.59;4992242;28;20128;-74
2023/03/20 03:02:15;;;;;;;16.05;8.75;;;;;;;7.52;86.71;101850.75;5077961;28;20041;-77
2023/03/20 03:04:53;;;;;;;19.20;10.40;;;;;;;7.52;86.85;101847.25;5057054;28;20052;-76
2023/03/20 03:07:30;;;;;;;18.27;9.43;;;;;;;7.48;86.67;101833.25;5060744;28;20042;-77
2023/03/20 03:10:10;;;;;;;19.02;10.13;;;;;;;7.48;86.79;101837.66;5063526;28;20507;-76
2023/03/20 03:12:42;;;;;;;20.90;9.68;;;;;;;7.46;86.97;101829.75;5063179;28;20045;-75
2023/03/20 03:15:24;;;;;;;22.48;10.73;;;;;;;7.42;86.83;101825.41;5065074;28;20041;-74
2023/03/20 03:17:52;;;;;;;24.40;11.02;;;;;;;7.41;86.86;101826.28;5065282;28;20045;-74
2023/03/20 03:20:33;;;;;;;18.42;10.35;;;;;;;7.38;86.85;101828.91;5081971;28;20053;-74
2023/03/20 03:23:01;;;;;;;18.65;11.23;;;;;;;7.36;87.10;101828.03;5063384;28;20037;-75
2023/03/20 03:25:38;;;;;;;23.23;11.68;;;;;;;7.32;86.93;101828.91;5067847;28;20040;-76
2023/03/20 03:28:39;;;;;;;21.30;12.00;;;;;;;7.29;86.96;101828.03;5067731;28;20925;-75
2023/03/20 03:31:14;;;;;;;23.00;11.18;;;;;;;7.26;87.08;101817.53;5065155;28;20037;-75
2023/03/20 03:33:47;;;;;;;22.02;11.40;;;;;;;7.27;86.98;101818.44;5067423;28;20041;-75
2023/03/20 03:36:35;;;;;;;20.67;11.47;;;;;;;7.23;87.05;101814.91;5067907;28;20120;-74
2023/03/20 03:39:23;;;;;;;23.73;12.23;;;;;;;7.22;87.12;101809.69;5067462;28;20049;-75
2023/03/20 03:42:23;;;;;;;22.35;12.02;;;;;;;7.20;87.19;101791.34;5102155;28;20053;-75
2023/03/20 03:45:04;;;;;;;21.77;11.88;;;;;;;7.19;87.32;101778.19;5069148;28;20051;-75
2023/03/20 03:47:39;;;;;;;24.35;13.00;;;;;;;7.17;87.37;101783.47;5067786;28;20041;-75
2023/03/20 03:50:47;;;;;;;23.75;12.32;;;;;;;7.18;87.12;101784.31;5068036;28;20044;-75
2023/03/20 03:53:25;;;;;;;24.83;12.60;;;;;;;7.17;87.37;101785.22;5065351;28;20440;-75
2023/03/20 03:55:59;;;;;;;25.65;12.93;;;;;;;7.14;87.29;101780.81;5053240;28;20045;-76
2023/03/20 03:58:41;;;;;;;21.55;11.82;;;;;;;7.13;87.12;101777.34;5067712;28;20045;-75
2023/03/20 04:01:11;;;;;;;23.25;12.77;;;;;;;7.13;87.31;101782.59;5083967;28;20041;-75
2023/03/20 04:03:48;;;;;;;25.05;13.38;;;;;;;7.12;87.56;101772.97;5067593;28;20782;-75
2023/03/20 04:06:17;;;;;;;25.05;12.57;;;;;;;7.12;87.59;101769.50;5064471;28;20049;-75
2023/03/20 04:08:44;;;;;;;24.77;12.43;;;;;;;7.12;87.62;101772.97;5065760;28;20801;-75
2023/03/20 04:11:16;;;;;;;22.85;12.60;;;;;;;7.14;87.32;101783.44;5067403;28;20047;-74
2023/03/20 04:14:02;;;;;;;26.13;12.90;;;;;;;7.10;87.46;101779.09;5067975;28;20096;-75
2023/03/20 04:16:49;;;;;;;24.42;12.63;;;;;;;7.09;87.58;101793.09;5067764;28;20061;-75
2023/03/20 04:19:36;;;;;;;26.02;13.35;;;;;;;7.06;87.29;101787.84;5065247;28;20049;-76
2023/03/20 04:22:24;;;;;;;23.85;12.73;;;;;;;7.01;87.50;101795.69;5066477;28;20457;-74
2023/03/20 04:25:29;;;;;;;25.92;12.48;;;;;;;6.98;87.34;101786.09;5051425;28;20144;-75
2023/03/20 04:28:18;;;;;;;;;;;;;;;6.91;87.31;101768.63;5063391;28;20889;-76
2023/03/20 04:31:14;;;;;;;23.25;11.95;;;;;;;6.89;87.45;101772.09;5062293;28;19928;-77
2023/03/20 04:34:21;;;;;;;29.85;13.15;;;;;;;6.86;87.73;101775.59;5064334;28;20049;-76
2023/03/20 04:37:19;;;;;;;21.25;12.20;;;;;;;6.84;87.44;101769.47;5065421;28;20132;-76
2023/03/20 04:40:14;;;;;;;26.70;13.00;;;;;;;6.82;87.67;101764.25;5064756;28;20084;-76
2023/03/20 04:43:02;;;;;;;23.73;12.60;;;;;;;6.82;87.85;101768.59;5065898;28;20049;-76
2023/03/20 04:45:49;;;;;;;24.58;12.55;;;;;;;6.81;87.80;101767.75;5066809;28;20056;-76
2023/03/20 04:48:35;;;;;;;23.02;12.05;;;;;;;6.79;87.77;101772.09;5067473;28;20110;-76
2023/03/20 04:51:22;;;;;;;24.52;11.77;;;;;;;6.79;87.86;101779.97;5066014;28;20073;-76
2023/03/20 04:54:11;;;;;;;22.27;11.73;;;;;;;6.75;87.54;101764.25;5066162;28;20135;-75
2023/03/20 04:56:58;;;;;;;21.88;11.40;;;;;;;6.73;87.89;101763.34;5066196;28;20057;-75
2023/03/20 04:59:45;;;;;;;25.88;12.25;;;;;;;6.70;87.70;101763.38;5067304;28;20128;-75
2023/03/20 05:02:32;;;;;;;23.35;11.98;;;;;;;6.65;87.83;101755.50;5063187;28;20056;-74
2023/03/20 05:05:18;;;;;;;24.60;12.52;;;;;;;6.62;87.92;101755.50;5079592;28;20095;-75
2023/03/20 05:08:05;;;;;;;29.30;12.65;;;;;;;6.60;88.09;101766.00;5065172;28;20103;-76
2023/03/20 05:10:55;;;;;;;20.13;11.38;;;;;;;6.60;88.35;101762.47;5056859;28;20120;-76
2023/03/20 05:13:41;;;;;;;27.40;11.93;;;;;;;6.60;88.42;101766.00;5067209;28;20106;-76
2023/03/20 05:16:26;;;;;;;25.67;11.82;;;;;;;6.62;88.47;101766.84;5068078;28;20052;-73
2023/03/20 05:18:59;;;;;;;21.05;11.85;;;;;;;6.64;88.44;101767.72;5082886;28;20076;-73
2023/03/20 05:21:45;;;;;;;23.40;11.85;;;;;;;6.67;88.27;101770.34;5082435;28;20045;-76
2023/03/20 05:24:27;;;;;;;26.52;11.55;;;;;;;6.68;88.35;101763.34;5065867;28;20044;-76
2023/03/20 05:27:07;;;;;;;24.40;11.40;;;;;;;6.71;88.11;101775.63;5046736;28;20072;-73
2023/03/20 05:30:04;;;;;;;24.10;11.68;;;;;;;6.71;88.10;101775.63;5053039;28;20056;-77
2023/03/20 05:32:51;;;;;;;19.23;11.32;;;;;;;6.72;87.91;101765.13;5052816;28;20049;-74
2023/03/20 05:35:33;;;;;;;18.13;11.52;;;;;;;6.73;87.97;101768.59;5065271;28;20037;-76
2023/03/20 05:38:21;;;;;;;25.52;11.20;;;;;;;6.75;88.03;101759.88;5061205;28;20052;-74
2023/03/20 05:41:02;;;;;;;20.77;10.55;;;;;;;6.78;88.31;101756.38;5064170;28;20136;-74
2023/03/20 05:44:00;;;;;;;49.75;12.73;;;;;;;6.90;88.65;101771.22;5061527;28;20045;-75
2023/03/20 05:46:46;;;;;;;24.35;10.63;;;;;;;7.00;88.78;101767.72;5062835;28;20041;-74
2023/03/20 05:49:25;;;;;;;24.35;11.35;;;;;;;7.07;88.56;101768.59;5061078;28;20506;-74
2023/03/20 05:52:19;;;;;;;20.55;10.50;;;;;;;7.10;88.48;101761.59;5074395;28;20106;-76
2023/03/20 05:55:07;;;;;;;21.20;10.65;;;;;;;7.19;88.40;101759.84;5058721;28;20131;-75
2023/03/20 05:57:46;;;;;;;21.50;10.52;;;;;;;7.26;88.31;101782.59;5063948;28;20099;-75
2023/03/20 06:00:27;;;;;;;20.27;10.65;;;;;;;7.31;87.99;101772.94;5056656;28;20045;-74
2023/03/20 06:03:32;;;;;;;22.40;10.70;;;;;;;7.38;87.74;101785.16;5057642;28;20045;-75
2023/03/20 06:06:07;;;;;;;23.35;9.98;;;;;;;7.44;87.28;101790.41;5064701;28;20098;-75
2023/03/20 06:08:35;;;;;;;20.88;9.98;;;;;;;7.49;87.29;101793.03;5066154;28;20033;-75
2023/03/20 06:11:03;;;;;;;19.83;10.07;;;;;;;7.53;86.92;101786.00;5046249;28;20514;-75
2023/03/20 06:13:33;;;;;;;21.08;10.15;;;;;;;7.57;86.64;101790.41;5061759;28;20163;-74
2023/03/20 06:16:00;;;;;;;22.48;9.68;;;;;;;7.59;86.12;101792.13;5064429;28;20533;-75
2023/03/20 06:18:28;;;;;;;22.35;9.05;;;;;;;7.59;86.00;101791.25;5064127;28;20491;-74
2023/03/20 06:20:56;;;;;;;18.75;9.02;;;;;;;7.61;85.75;101794.75;5078827;28;20583;-75
2023/03/20 06:23:26;;;;;;;16.95;8.48;;;;;;;7.64;85.12;101793.84;5060505;28;20037;-76
2023/03/20 06:25:53;;;;;;;19.70;9.18;;;;;;;7.61;84.99;101800.88;5053096;28;20145;-74
2023/03/20 06:28:21;;;;;;;16.02;8.70;;;;;;;7.56;84.71;101799.13;5061178;28;20902;-73
2023/03/20 06:30:56;;;;;;;17.55;8.77;;;;;;;7.49;84.62;101807.88;5079432;28;20126;-73
2023/03/20 06:33:24;;;;;;;21.88;8.63;;;;;;;7.46;84.62;101808.75;5058572;28;20037;-73
2023/03/20 06:35:56;;;;;;;25.80;9.43;;;;;;;7.45;84.73;101807.91;5062979;28;20049;-73
2023/03/20 06:38:25;;;;;;;32.15;10.50;;;;;;;7.47;84.47;101810.50;5057537;28;20053;-75
2023/03/20 06:40:52;;;;;;;21.65;8.27;;;;;;;7.48;84.23;101801.78;5056925;28;20085;-74
2023/03/20 06:43:20;;;;;;;23.10;9.02;;;;;;;7.49;84.22;101806.16;5058938;28;20623;-74
2023/03/20 06:45:51;;;;;;;20.27;7.63;;;;;;;7.55;84.18;101798.25;5059241;28;20040;-75
2023/03/20 06:48:25;;;;;;;15.35;7.70;;;;;;;7.63;84.24;101808.72;5061911;28;20506;-74
2023/03/20 06:50:52;;;;;;;17.92;7.70;;;;;;;7.69;84.29;101806.09;5059097;28;20119;-74
2023/03/20 06:53:22;;;;;;;19.23;7.78;;;;;;;7.74;84.15;101808.69;5059566;28;20037;-73
2023/03/20 06:56:03;;;;;;;15.90;7.75;;;;;;;7.78;84.08;101816.56;5062798;28;20045;-74
2023/03/20 06:58:30;;;;;;;12.80;7.20;;;;;;;7.85;83.73;101813.94;5059761;28;20037;-75
2023/03/20 07:00:57;;;;;;;12.80;7.22;;;;;;;7.87;83.17;101810.41;5062291;28;20047;-75
2023/03/20 07:03:24;;;;;;;16.55;8.52;;;;;;;7.91;83.25;101811.25;5060970;28;20090;-74
2023/03/20 07:05:53;;;;;;;19.08;8.20;;;;;;;7.96;83.42;101813.88;5064498;28;20087;-74
2023/03/20 07:08:22;;;;;;;27.70;8.18;;;;;;;8.02;83.13;101817.34;5062907;28;20721;-75
2023/03/20 07:10:49;;;;;;;19.35;7.35;;;;;;;8.05;82.27;101827.84;5064483;28;20040;-73
2023/03/20 07:13:16;;;;;;;16.85;7.35;;;;;;;8.05;81.98;101830.47;5062035;28;20121;-74
2023/03/20 07:15:43;;;;;;;17.70;7.18;;;;;;;8.05;81.92;101827.84;5059547;28;20052;-75
2023/03/20 07:18:31;;;;;;;16.17;6.50;;;;;;;8.06;81.73;101831.34;5063976;28;20116;-73
2023/03/20 07:21:02;;;;;;;19.50;7.80;;;;;;;8.06;81.60;101831.34;5065398;28;20049;-73
2023/03/20 07:23:33;;;;;;;16.38;6.90;;;;;;;8.08;81.77;101842.72;5058618;28;20095;-74
2023/03/20 07:26:02;;;;;;;13.50;6.63;;;;;;;8.12;81.37;101833.97;5052454;28;20044;-73
2023/03/20 07:28:29;;;;;;;16.13;6.82;;;;;;;8.13;81.36;101837.44;5066710;28;20049;-72
2023/03/20 07:31:20;;;;;;;24.15;7.60;;;;;;;8.15;81.58;101839.19;5064196;28;20540;-73
2023/03/20 07:33:52;;;;;;;13.73;6.38;;;;;;;8.19;80.99;101834.81;5059690;28;20127;-73
2023/03/20 07:36:20;;;;;;;14.07;6.40;;;;;;;8.18;80.59;101839.19;5063530;28;20048;-73
2023/03/20 07:38:48;;;;;;;15.52;6.75;;;;;;;8.17;80.60;101837.44;5063996;28;20080;-74
2023/03/20 07:41:15;;;;;;;18.42;6.43;;;;;;;8.17;80.20;101837.44;5064031;28;20045;-75
2023/03/20 07:43:51;;;;;;;14.10;6.55;;;;;;;8.16;80.06;101850.56;5064185;28;20048;-74
2023/03/20 07:46:43;;;;;;;22.88;6.90;;;;;;;8.15;80.19;101844.44;5052047;28;20047;-74
2023/03/20 07:49:10;;;;;;;24.23;6.40;;;;;;;8.19;80.12;101838.31;5062157;28;20042;-72
2023/03/20 07:51:37;;;;;;;18.92;6.18;;;;;;;8.23;80.20;101842.66;5064244;28;20088;-72
2023/03/20 07:54:05;;;;;;;15.23;6.63;;;;;;;8.26;79.79;101839.16;5063834;28;20041;-72
2023/03/20 07:56:32;;;;;;;16.25;6.32;;;;;;;8.28;79.61;101845.28;5062843;28;20045;-73
2023/03/20 07:58:59;;;;;;;22.05;6.70;;;;;;;8.29;79.79;101840.88;5061153;28;20053;-73
2023/03/20 08:01:25;;;;;;;16.08;5.65;;;;;;;8.33;80.03;101843.47;5055417;28;20052;-74
2023/03/20 08:03:52;;;;;;;11.25;5.97;;;;;;;8.40;80.17;101845.19;5046832;28;20045;-74
2023/03/20 08:06:20;;;;;;;14.82;5.90;;;;;;;8.47;79.67;101838.19;5064793;28;20168;-74
2023/03/20 08:08:50;;;;;;;11.82;5.63;;;;;;;8.52;79.74;101839.06;5068888;28;20096;-74
2023/03/20 08:11:18;;;;;;;17.23;5.68;;;;;;;8.59;79.19;101836.38;5068140;28;20127;-74
2023/03/20 08:13:46;;;;;;;11.82;6.05;;;;;;;8.64;79.42;101842.50;5067276;28;20057;-74
2023/03/20 08:16:13;;;;;;;18.35;6.10;;;;;;;8.69;79.24;101843.31;5068933;28;20037;-73
2023/03/20 08:18:41;;;;;;;13.80;5.38;;;;;;;8.74;78.84;101849.44;5069074;28;20106;-74
2023/03/20 08:21:08;;;;;;;18.80;5.57;;;;;;;8.77;78.86;101843.28;5067804;28;20053;-73
2023/03/20 08:23:35;;;;;;;18.30;5.45;;;;;;;8.80;77.95;101843.25;5067001;28;20099;-74
2023/03/20 08:26:02;;;;;;;12.43;5.50;;;;;;;8.80;78.01;101838.88;5068779;28;20599;-74
2023/03/20 08:28:29;;;;;;;24.17;6.35;;;;;;;8.83;77.42;101848.47;5069171;28;20041;-74
2023/03/20 08:31:15;;;;;;;18.67;6.10;;;;;;;8.82;77.69;101842.38;5068404;28;20800;-74
2023/03/20 08:33:45;;;;;;;13.25;5.50;;;;;;;8.86;77.86;101840.56;5068030;28;20045;-74
2023/03/20 08:36:14;;;;;;;11.85;5.90;;;;;;;8.91;77.81;101841.41;5074333;28;20503;-73
2023/03/20 08:38:42;;;;;;;23.60;6.40;;;;;;;8.98;77.46;101851.00;5083466;28;20127;-74
2023/03/20 08:41:09;;;;;;;14.85;5.47;;;;;;;9.02;77.10;101842.19;5088453;28;20052;-74
2023/03/20 08:43:36;;;;;;;22.48;5.63;;;;;;;9.10;76.97;101844.78;5089814;28;20523;-74
2023/03/20 08:46:04;;;;;;;18.25;5.43;;;;;;;9.19;76.75;101833.31;5089839;28;20436;-74
2023/03/20 08:48:31;;;;;;;12.73;5.22;;;;;;;9.28;77.19;101837.59;5089373;28;20491;-74
2023/03/20 08:50:58;;;;;;;12.00;4.45;;;;;;;9.37;77.05;101845.41;5088391;28;20154;-74
2023/03/20 08:53:26;;;;;;;14.57;4.82;;;;;;;9.46;77.03;101841.84;5073003;28;20525;-74
2023/03/20 08:55:53;;;;;;;18.70;5.25;;;;;;;9.56;76.84;101834.72;5067614;28;20052;-74
2023/03/20 08:58:21;;;;;;;14.27;4.65;;;;;;;9.64;76.07;101832.88;5067987;28;20122;-74
2023/03/20 09:00:48;;;;;;;15.40;4.80;;;;;;;9.70;76.11;101830.19;5067927;28;20125;-74
2023/03/20 09:03:19;;;;;;;12.32;4.88;;;;;;;9.80;75.99;101825.69;5068184;28;20052;-74
2023/03/20 09:05:51;;;;;;;19.65;5.47;;;;;;;9.87;75.20;101822.09;5069506;28;20060;-74
2023/03/20 09:08:18;;;;;;;14.20;5.05;;;;;;;9.93;75.03;101823.78;5074100;28;20048;-74
2023/03/20 09:10:47;;;;;;;15.25;4.97;;;;;;;9.99;73.98;101828.97;5067084;28;20045;-74
2023/03/20 09:13:18;;;;;;;13.20;4.88;;;;;;;9.99;73.53;101830.75;5067639;28;20095;-74
2023/03/20 09:15:55;;;;;;;15.95;4.93;;;;;;;9.99;73.35;101828.97;5068481;28;20529;-74
2023/03/20 09:18:23;;;;;;;22.90;5.80;;;;;;;9.98;72.95;101829.84;5067640;28;20068;-73
2023/03/20 09:20:51;;;;;;;24.75;5.63;;;;;;;9.97;73.07;101828.09;5064767;28;20118;-72
2023/03/20 09:23:18;;;;;;;15.43;4.13;;;;;;;9.99;72.74;101836.00;5065318;28;20099;-73
2023/03/20 09:25:46;;;;;;;20.52;4.45;;;;;;;9.99;72.64;101825.47;5067089;28;20041;-72
2023/03/20 09:28:13;;;;;;;10.63;4.28;;;;;;;10.00;72.40;101828.06;5067856;28;20049;-72
2023/03/20 09:30:42;;;;;;;10.73;4.40;;;;;;;10.00;73.06;101843.03;5068602;28;20044;-73
2023/03/20 09:33:10;;;;;;;9.65;4.05;;;;;;;9.99;72.34;101843.91;5067994;28;20253;-73
2023/03/20 09:35:37;;;;;;;13.18;5.00;;;;;;;9.96;72.63;101836.94;5067278;28;20158;-72
2023/03/20 09:38:05;;;;;;;10.73;3.83;;;;;;;10.00;73.06;101830.72;5065628;28;20053;-72
2023/03/20 09:40:51;;;;;;;16.33;4.75;;;;;;;10.03;73.14;101835.06;5055349;28;20132;-72
2023/03/20 09:43:50;;;;;;;11.13;3.97;;;;;;;10.05;72.29;101839.44;5049483;28;20056;-72
2023/03/20 09:46:57;;;;;;;10.80;4.45;;;;;;;10.02;72.77;101842.09;5049331;28;20045;-72
2023/03/20 09:50:20;;;;;;;13.68;4.10;;;;;;;10.05;73.27;101839.44;5067780;28;20131;-72
2023/03/20 09:53:06;;;;;;;9.80;4.20;;;;;;;10.07;73.64;101844.69;5067770;28;20135;-72
2023/03/20 09:55:38;;;;;;;10.13;4.15;;;;;;;10.08;73.99;101843.81;5067267;28;20528;-72
2023/03/20 09:58:33;;;;;;;9.02;4.25;;;;;;;10.04;73.81;101845.59;5072607;28;20049;-72
2023/03/20 10:01:05;;;;;;;12.68;3.95;;;;;;;10.01;74.15;101850.91;5067983;28;20041;-72
2023/03/20 10:03:51;;;;;;;14.50;4.45;;;;;;;10.01;73.79;101850.91;5067510;28;20048;-72
2023/03/20 10:06:19;;;;;;;10.35;4.15;;;;;;;9.95;73.99;101853.63;5067267;28;20037;-71
2023/03/20 10:08:46;;;;;;;12.10;4.13;;;;;;;9.95;74.32;101856.25;5066555;28;20045;-71
2023/03/20 10:11:47;;;;;;;10.82;3.88;;;;;;;9.99;73.82;101857.09;5066043;28;20072;-72
2023/03/20 10:14:59;;;;;;;12.27;4.53;;;;;;;10.04;74.37;101852.63;5065182;28;20049;-72
2023/03/20 10:18:03;;;;;;;12.60;3.80;;;;;;;10.15;73.38;101856.00;5066501;28;20040;-72
2023/03/20 10:21:06;;;;;;;13.93;4.50;;;;;;;10.15;72.97;101852.50;5067860;28;20472;-72
2023/03/20 10:24:02;;;;;;;11.77;4.13;;;;;;;10.08;72.78;101852.56;5064030;28;20089;-72
2023/03/20 10:26:34;;;;;;;11.00;3.47;;;;;;;10.00;71.57;101857.06;5065687;28;20942;-72
2023/03/20 10:29:29;;;;;;;12.20;4.55;;;;;;;9.87;72.34;101856.34;5065958;28;20048;-72
2023/03/20 10:32:22;;;;;;;16.38;4.35;;;;;;;9.78;72.80;101859.06;5064242;28;20052;-72
2023/03/20 10:35:14;;;;;;;8.48;3.10;;;;;;;9.78;72.52;101849.38;5067225;28;20091;-71
2023/03/20 10:38:00;;;;;;;9.80;3.45;;;;;;;9.95;72.56;101845.72;5067554;28;20049;-72
2023/03/20 10:40:37;;;;;;;7.03;2.97;;;;;;;10.20;71.98;101842.75;5060942;28;20132;-72
2023/03/20 10:43:17;;;;;;;7.85;3.00;;;;;;;10.41;72.57;101834.59;5062412;28;20053;-72
2023/03/20 10:46:03;;;;;;;8.23;2.60;;;;;;;10.59;72.22;101832.59;5052521;28;20045;-72
2023/03/20 10:48:46;;;;;;;5.90;2.15;;;;;;;10.72;72.13;101834.16;5065589;28;20037;-72
2023/03/20 10:51:32;;;;;;;7.07;2.30;;;;;;;10.84;70.84;101829.59;5066818;28;20049;-72
2023/03/20 10:54:05;;;;;;;10.80;2.72;;;;;;;10.84;70.19;101833.09;5066651;28;20037;-72
2023/03/20 10:56:42;;;;;;;9.57;2.63;;;;;;;10.86;69.85;101827.81;5063815;28;20049;-72
2023/03/20 10:59:23;;;;;;;7.43;2.17;;;;;;;10.87;69.02;101833.06;5065193;28;20041;-72
2023/03/20 11:01:51;;;;;;;7.95;2.30;;;;;;;10.85;69.38;101829.56;5067359;28;20075;-72
2023/03/20 11:04:18;;;;;;;8.43;2.50;;;;;;;10.87;68.93;101835.69;5066779;28;20041;-72
2023/03/20 11:07:00;;;;;;;9.35;2.42;;;;;;;10.84;68.62;101829.59;5066853;28;20043;-72
2023/03/20 11:09:28;;;;;;;6.75;2.00;;;;;;;10.79;69.08;101829.69;5066850;28;20581;-72
2023/03/20 11:12:00;;;;;;;11.45;2.80;;;;;;;10.83;69.96;101827.84;5065513;28;20049;-72
2023/03/20 11:14:38;;;;;;;8.48;2.72;;;;;;;10.87;70.01;101830.44;5066182;28;20497;-72
2023/03/20 11:17:05;;;;;;;7.82;2.40;;;;;;;10.95;70.26;101832.94;5066879;28;20080;-72
2023/03/20 11:19:39;;;;;;;9.27;3.22;;;;;;;11.03;70.00;101836.31;5065124;28;20068;-72
2023/03/20 11:22:25;;;;;;;9.43;2.90;;;;;;;11.11;70.85;101828.28;5066469;28;20874;-72
2023/03/20 11:25:00;;;;;;;7.72;2.53;;;;;;;11.22;70.06;101829.88;5065181;28;20045;-72
2023/03/20 11:27:33;;;;;;;11.93;2.85;;;;;;;11.23;70.21;101828.97;5062084;28;21183;-72
2023/03/20 11:30:14;;;;;;;9.02;3.05;;;;;;;11.29;70.89;101818.31;5066730;28;20786;-71
2023/03/20 11:32:49;;;;;;;9.63;2.85;;;;;;;11.38;70.78;101810.22;5066218;28;20155;-72
2023/03/20 11:35:27;;;;;;;;;;;;;;;11.42;70.98;101805.75;5069722;28;20045;-71
2023/03/20 11:38:12;;;;;;;5.90;2.72;;;;;;;11.49;70.59;101810.03;5048401;28;20033;-72
2023/03/20 11:40:40;;;;;;;6.57;3.17;;;;;;;11.58;70.01;101804.59;5064550;28;20041;-72
2023/03/20 11:43:14;;;;;;;8.50;2.75;;;;;;;11.61;69.53;101804.50;5067681;28;20092;-72
2023/03/20 11:45:46;;;;;;;6.10;2.72;;;;;;;11.52;68.59;101794.13;5079561;28;20056;-72
2023/03/20 11:48:25;;;;;;;10.52;3.10;;;;;;;11.50;68.63;101799.44;5049594;28;20064;-72
2023/03/20 11:51:07;;;;;;;7.68;3.08;;;;;;;11.48;69.31;101803.88;5068078;28;20566;-73
2023/03/20 11:53:59;;;;;;;9.70;3.65;;;;;;;11.47;69.24;101802.13;5069305;28;20040;-72
2023/03/20 11:56:31;;;;;;;10.25;3.90;;;;;;;11.50;69.75;101806.47;5058726;28;20144;-73
2023/03/20 11:59:17;;;;;;;8.88;3.00;;;;;;;11.53;69.54;101811.69;5068967;28;20041;-72
2023/03/20 12:01:52;;;;;;;26.38;18.85;;;;;;;11.57;69.61;101809.88;5057611;28;20041;-72
2023/03/20 12:04:26;;;;;;;15.85;10.82;;;;;;;11.58;69.73;101804.59;5068181;28;20063;-72
2023/03/20 12:07:09;;;;;;;31.50;25.30;;;;;;;11.63;69.97;101802.69;5069785;28;20037;-72
2023/03/20 12:09:54;;;;;;;24.70;14.60;;;;;;;11.70;69.57;101794.69;5067671;28;20152;-72
2023/03/20 12:12:42;;;;;;;81.53;52.25;;;;;;;11.75;69.20;101795.44;5068343;28;20095;-72